createdAt,value
2023-02-11T00:01:47.825Z,101683.84
2023-02-11T00:04:14.415Z,101687.75
2023-02-11T00:06:41.036Z,101682.16
2023-02-11T00:09:07.785Z,101683.28
2023-02-11T00:11:34.661Z,101683.28
2023-02-11T00:14:02.302Z,101684.34
2023-02-11T00:16:29.788Z,101686.06
2023-02-11T00:18:56.384Z,101690.63
2023-02-11T00:21:24.149Z,101681.22
2023-02-11T00:23:50.870Z,101687.47
2023-02-11T00:26:21.040Z,101689.22
2023-02-11T00:28:47.851Z,101683.47
2023-02-11T00:31:14.873Z,101683.28
2023-02-11T00:33:41.630Z,101687.84
2023-02-11T00:36:09.533Z,101683.41
2023-02-11T00:38:36.339Z,101687.66
2023-02-11T00:41:02.923Z,101682.38
2023-02-11T00:43:29.525Z,101675.94
2023-02-11T00:45:56.168Z,101676.78
2023-02-11T00:48:22.822Z,101671.69
2023-02-11T00:50:49.798Z,101673.38
2023-02-11T00:53:16.562Z,101660.00
2023-02-11T00:55:43.162Z,101663.34
2023-02-11T00:58:09.794Z,101658.28
2023-02-11T01:00:36.662Z,101660.56
2023-02-11T01:03:03.286Z,101661.16
2023-02-11T01:05:30.935Z,101651.66
2023-02-11T01:07:57.996Z,101657.84
2023-02-11T01:10:24.664Z,101659.00
2023-02-11T01:12:51.205Z,101650.63
2023-02-11T01:15:18.294Z,101649.50
2023-02-11T01:17:44.894Z,101641.09
2023-02-11T01:20:15.491Z,101646.69
2023-02-11T01:22:42.163Z,101639.41
2023-02-11T01:25:09.110Z,101643.59
2023-02-11T01:27:37.242Z,101639.69
2023-02-11T01:30:04.174Z,101642.16
2023-02-11T01:32:30.719Z,101637.09
2023-02-11T01:34:57.287Z,101640.41
2023-02-11T01:37:24.063Z,101645.09
2023-02-11T01:39:50.736Z,101633.06
2023-02-11T01:42:17.881Z,101633.91
2023-02-11T01:44:44.566Z,101648.16
2023-02-11T01:47:11.196Z,101643.59
2023-02-11T01:49:42.746Z,101638.53
2023-02-11T01:52:13.598Z,101631.25
2023-02-11T01:55:03.364Z,101644.31
2023-02-11T01:57:30.695Z,101638.06
2023-02-11T02:00:03.457Z,101633.31
2023-02-11T02:02:35.122Z,101635.00
2023-02-11T02:05:07.192Z,101632.28
2023-02-11T02:07:35.184Z,101628.13
2023-02-11T02:10:06.768Z,101623.94
2023-02-11T02:12:33.314Z,101623.94
2023-02-11T02:15:18.358Z,101620.06
2023-02-11T02:17:47.137Z,101618.34
2023-02-11T02:20:37.840Z,101619.22
2023-02-11T02:23:04.385Z,101622.25
2023-02-11T02:25:40.117Z,101614.97
2023-02-11T02:28:09.569Z,101611.59
2023-02-11T02:30:36.256Z,101609.91
2023-02-11T02:33:21.625Z,101604.81
2023-02-11T02:35:54.845Z,101606.47
2023-02-11T02:38:24.026Z,101604.78
2023-02-11T02:40:50.688Z,101594.69
2023-02-11T02:43:17.499Z,101593.00
2023-02-11T02:45:44.197Z,101593.19
2023-02-11T02:48:29.616Z,101591.69
2023-02-11T02:51:06.930Z,101574.59
2023-02-11T02:53:40.116Z,101586.28
2023-02-11T02:56:22.563Z,101579.84
2023-02-11T02:58:59.731Z,101584.56
2023-02-11T03:01:31.175Z,101585.69
2023-02-11T03:04:03.764Z,101579.84
2023-02-11T03:06:30.659Z,101572.88
2023-02-11T03:08:59.030Z,101581.88
2023-02-11T03:11:25.705Z,101575.44
2023-02-11T03:13:52.400Z,101571.78
2023-02-11T03:16:20.022Z,101574.31
2023-02-11T03:18:48.688Z,101568.16
2023-02-11T03:21:15.435Z,101562.56
2023-02-11T03:23:53.197Z,101563.66
2023-02-11T03:26:49.342Z,101565.88
2023-02-11T03:29:23.738Z,101567.56
2023-02-11T03:31:59.196Z,101558.34
2023-02-11T03:34:25.824Z,101557.75
2023-02-11T03:36:54.724Z,101560.81
2023-02-11T03:39:23.630Z,101554.63
2023-02-11T03:41:50.223Z,101555.97
2023-02-11T03:44:16.802Z,101554.28
2023-02-11T03:46:44.653Z,101550.38
2023-02-11T03:49:12.190Z,101546.50
2023-02-11T03:51:38.879Z,101548.69
2023-02-11T03:54:06.546Z,101546.19
2023-02-11T03:56:33.659Z,101542.78
2023-02-11T03:59:00.227Z,101536.59
2023-02-11T04:01:26.901Z,101532.06
2023-02-11T04:03:53.484Z,101535.38
2023-02-11T04:06:20.030Z,101532.50
2023-02-11T04:08:46.769Z,101526.91
2023-02-11T04:11:13.391Z,101526.38
2023-02-11T04:13:40.036Z,101523.59
2023-02-11T04:16:06.719Z,101524.72
2023-02-11T04:18:33.330Z,101514.97
2023-02-11T04:20:59.942Z,101522.47
2023-02-11T04:23:26.686Z,101515.22
2023-02-11T04:25:53.432Z,101519.13
2023-02-11T04:28:20.145Z,101521.31
2023-02-11T04:30:46.837Z,101523.28
2023-02-11T04:33:13.423Z,101510.66
2023-02-11T04:35:39.965Z,101522.94
2023-02-11T04:38:06.668Z,101517.94
2023-02-11T04:40:33.256Z,101515.41
2023-02-11T04:42:59.870Z,101514.84
2023-02-11T04:45:26.534Z,101519.53
2023-02-11T04:47:53.100Z,101520.41
2023-02-11T04:50:19.746Z,101523.22
2023-02-11T04:52:46.349Z,101518.97
2023-02-11T04:55:13.082Z,101511.72
2023-02-11T04:57:39.759Z,101507.81
2023-02-11T05:00:06.812Z,101514.50
2023-02-11T05:02:33.412Z,101511.72
2023-02-11T05:05:00.046Z,101509.34
2023-02-11T05:07:26.805Z,101511.47
2023-02-11T05:09:53.356Z,101515.38
2023-02-11T05:12:19.919Z,101515.63
2023-02-11T05:14:46.606Z,101513.41
2023-02-11T05:17:13.275Z,101507.00
2023-02-11T05:19:39.877Z,101509.19
2023-02-11T05:22:06.498Z,101501.09
2023-02-11T05:24:33.132Z,101497.13
2023-02-11T05:26:59.960Z,101513.78
2023-02-11T05:29:26.629Z,101507.88
2023-02-11T05:31:53.453Z,101498.03
2023-02-11T05:34:20.008Z,101500.00
2023-02-11T05:36:46.765Z,101494.41
2023-02-11T05:39:13.333Z,101496.84
2023-02-11T05:41:39.968Z,101495.06
2023-02-11T05:44:06.782Z,101497.50
2023-02-11T05:46:33.380Z,101502.19
2023-02-11T05:49:00.018Z,101489.59
2023-02-11T05:51:26.963Z,101497.84
2023-02-11T05:53:53.663Z,101506.22
2023-02-11T05:56:20.394Z,101498.97
2023-02-11T05:58:47.053Z,101507.84
2023-02-11T06:01:13.763Z,101509.53
2023-02-11T06:03:40.387Z,101506.72
2023-02-11T06:06:10.223Z,101511.22
2023-02-11T06:08:39.128Z,101518.16
2023-02-11T06:11:05.931Z,101522.91
2023-02-11T06:13:32.620Z,101507.50
2023-02-11T06:15:59.469Z,101510.56
2023-02-11T06:18:26.265Z,101520.00
2023-02-11T06:20:52.944Z,101514.94
2023-02-11T06:23:19.521Z,101512.66
2023-02-11T06:25:46.143Z,101515.47
2023-02-11T06:28:12.847Z,101523.72
2023-02-11T06:30:39.424Z,101520.00
2023-02-11T06:33:06.042Z,101501.53
2023-02-11T06:35:33.762Z,101529.63
2023-02-11T06:38:00.320Z,101532.19
2023-02-11T06:40:26.894Z,101541.38
2023-02-11T06:42:53.522Z,101536.03
2023-02-11T06:45:20.716Z,101531.31
2023-02-11T06:47:47.259Z,101536.16
2023-02-11T06:50:14.208Z,101538.66
2023-02-11T06:52:40.979Z,101528.97
2023-02-11T06:55:07.704Z,101554.34
2023-02-11T06:57:34.352Z,101544.75
2023-02-11T07:00:00.947Z,101548.03
2023-02-11T07:02:27.533Z,101546.13
2023-02-11T07:04:54.194Z,101551.69
2023-02-11T07:07:20.982Z,101545.50
2023-02-11T07:09:47.616Z,101548.56
2023-02-11T07:12:14.246Z,101559.09
2023-02-11T07:14:40.834Z,101552.44
2023-02-11T07:17:07.453Z,101555.47
2023-02-11T07:19:34.216Z,101552.69
2023-02-11T07:22:01.006Z,101555.38
2023-02-11T07:24:27.713Z,101555.63
2023-02-11T07:26:54.456Z,101557.56
2023-02-11T07:29:21.515Z,101548.38
2023-02-11T07:31:48.236Z,101555.03
2023-02-11T07:34:15.007Z,101564.50
2023-02-11T07:36:43.797Z,101547.75
2023-02-11T07:39:10.467Z,101555.28
2023-02-11T07:41:38.110Z,101552.72
2023-02-11T07:44:04.877Z,101557.47
2023-02-11T07:46:31.821Z,101558.31
2023-02-11T07:48:58.651Z,101554.44
2023-02-11T07:51:28.666Z,101556.13
2023-02-11T07:53:55.706Z,101567.88
2023-02-11T07:56:22.579Z,101562.03
2023-02-11T07:58:49.313Z,101572.44
2023-02-11T08:01:17.970Z,101572.56
2023-02-11T08:03:44.815Z,101568.00
2023-02-11T08:06:15.204Z,101562.47
2023-02-11T08:08:42.058Z,101573.88
2023-02-11T08:11:12.906Z,101586.44
2023-02-11T08:13:39.496Z,101578.34
2023-02-11T08:16:06.266Z,101569.94
2023-02-11T08:18:33.053Z,101576.03
2023-02-11T08:21:06.686Z,101576.16
2023-02-11T08:23:33.485Z,101590.28
2023-02-11T08:26:04.114Z,101579.84
2023-02-11T08:28:30.765Z,101579.47
2023-02-11T08:30:57.505Z,101586.38
2023-02-11T08:33:24.113Z,101579.50
2023-02-11T08:35:50.694Z,101584.72
2023-02-11T08:38:17.421Z,101571.09
2023-02-11T08:40:43.970Z,101582.41
2023-02-11T08:43:10.608Z,101578.56
2023-02-11T08:45:37.791Z,101575.03
2023-02-11T08:48:04.559Z,101571.28
2023-02-11T08:50:32.565Z,101570.84
2023-02-11T08:52:59.274Z,101576.31
2023-02-11T08:55:25.821Z,101576.78
2023-02-11T08:57:52.586Z,101574.34
2023-02-11T09:00:19.904Z,101576.44
2023-02-11T09:02:46.478Z,101567.03
2023-02-11T09:05:13.098Z,101580.91
2023-02-11T09:07:39.870Z,101584.66
2023-02-11T09:10:06.590Z,101597.34
2023-02-11T09:12:33.241Z,101587.28
2023-02-11T09:14:59.950Z,101590.38
2023-02-11T09:17:26.627Z,101580.81
2023-02-11T09:19:53.273Z,101591.50
2023-02-11T09:22:20.019Z,101586.72
2023-02-11T09:24:46.684Z,101583.00
2023-02-11T09:27:13.242Z,101584.09
2023-02-11T09:29:39.948Z,101580.72
2023-02-11T09:32:09.661Z,101578.09
2023-02-11T09:34:36.621Z,101580.25
2023-02-11T09:37:03.361Z,101576.22
2023-02-11T09:39:30.029Z,101582.59
2023-02-11T09:42:15.694Z,101581.13
2023-02-11T09:44:42.309Z,101580.91
2023-02-11T09:47:27.856Z,101585.44
2023-02-11T09:49:57.566Z,101592.31
2023-02-11T09:52:27.308Z,101594.88
2023-02-11T09:54:54.593Z,101579.75
2023-02-11T09:57:28.648Z,101588.34
2023-02-11T09:59:56.415Z,101594.56
2023-02-11T10:02:28.957Z,101595.31
2023-02-11T10:05:01.874Z,101590.91
2023-02-11T10:07:33.876Z,101578.84
2023-02-11T10:10:00.546Z,101580.88
2023-02-11T10:12:36.582Z,101573.34
2023-02-11T10:15:21.763Z,101578.69
2023-02-11T10:17:51.609Z,101574.38
2023-02-11T10:20:36.553Z,101577.75
2023-02-11T10:23:09.341Z,101575.22
2023-02-11T10:25:36.027Z,101565.66
2023-02-11T10:28:10.542Z,101567.34
2023-02-11T10:31:03.624Z,101568.72
2023-02-11T10:33:34.889Z,101561.28
2023-02-11T10:36:01.534Z,101553.41
2023-02-11T10:38:28.165Z,101565.66
2023-02-11T10:40:54.893Z,101572.09
2023-02-11T10:43:22.898Z,101565.34
2023-02-11T10:45:50.408Z,101558.41
2023-02-11T10:48:35.834Z,101559.28
2023-02-11T10:51:14.011Z,101560.59
2023-02-11T10:53:41.264Z,101572.41
2023-02-11T10:56:07.966Z,101567.50
2023-02-11T10:58:34.630Z,101553.81
2023-02-11T11:01:01.357Z,101542.03
2023-02-11T11:03:29.291Z,101549.19
2023-02-11T11:05:58.711Z,101559.97
2023-02-11T11:08:45.386Z,101537.84
2023-02-11T11:11:12.918Z,101544.88
2023-02-11T11:13:40.453Z,101541.97
2023-02-11T11:16:13.405Z,101552.22
2023-02-11T11:18:40.467Z,101534.81
2023-02-11T11:21:08.011Z,101553.50
2023-02-11T11:23:37.881Z,101536.56
2023-02-11T11:26:05.761Z,101544.53
2023-02-11T11:28:39.971Z,101525.16
2023-02-11T11:31:12.429Z,101526.91
2023-02-11T11:33:40.807Z,101526.66
2023-02-11T11:36:20.693Z,101526.84
2023-02-11T11:38:55.807Z,101532.75
2023-02-11T11:41:26.480Z,101513.28
2023-02-11T11:44:11.904Z,101512.63
2023-02-11T11:46:40.506Z,101509.81
2023-02-11T11:49:16.259Z,101504.72
2023-02-11T11:51:43.041Z,101507.69
2023-02-11T11:54:12.368Z,101511.03
2023-02-11T11:57:05.403Z,101516.91
2023-02-11T11:59:31.968Z,101511.25
2023-02-11T12:02:06.266Z,101496.84
2023-02-11T12:04:40.845Z,101494.38
2023-02-11T12:07:26.151Z,101497.03
2023-02-11T12:09:58.815Z,101493.16
2023-02-11T12:12:32.365Z,101479.78
2023-02-11T12:15:02.082Z,101477.97
2023-02-11T12:17:28.746Z,101477.16
2023-02-11T12:20:06.200Z,101479.88
2023-02-11T12:22:51.620Z,101468.75
2023-02-11T12:25:31.840Z,101471.84
2023-02-11T12:28:13.765Z,101466.88
2023-02-11T12:30:43.538Z,101452.25
2023-02-11T12:33:44.916Z,101451.78
2023-02-11T12:36:24.273Z,101443.31
2023-02-11T12:38:57.044Z,101440.56
2023-02-11T12:42:04.336Z,101446.13
2023-02-11T12:44:41.006Z,101419.44
2023-02-11T12:47:07.686Z,101429.03
2023-02-11T12:49:53.016Z,101421.84
2023-02-11T12:52:23.086Z,101425.56
2023-02-11T12:54:53.860Z,101414.25
2023-02-11T12:57:20.709Z,101413.94
2023-02-11T12:59:56.825Z,101411.03
2023-02-11T13:02:29.438Z,101407.09
2023-02-11T13:04:57.606Z,101406.88
2023-02-11T13:07:35.210Z,101399.13
2023-02-11T13:10:05.912Z,101397.38
2023-02-11T13:12:51.036Z,101400.50
2023-02-11T13:15:17.769Z,101384.03
2023-02-11T13:17:47.525Z,101385.94
2023-02-11T13:20:32.813Z,101382.28
2023-02-11T13:23:11.857Z,101383.59
2023-02-11T13:25:43.653Z,101374.81
2023-02-11T13:28:13.421Z,101373.38
2023-02-11T13:30:46.996Z,101368.53
2023-02-11T13:33:16.791Z,101366.59
2023-02-11T13:35:51.242Z,101369.78
2023-02-11T13:38:18.930Z,101366.88
2023-02-11T13:40:45.500Z,101360.13
2023-02-11T13:43:25.122Z,101355.75
2023-02-11T13:45:51.959Z,101352.63
2023-02-11T13:48:25.659Z,101338.34
2023-02-11T13:50:53.762Z,101338.72
2023-02-11T13:53:20.478Z,101334.47
2023-02-11T13:55:47.882Z,101334.69
2023-02-11T13:58:14.524Z,101323.75
2023-02-11T14:00:48.729Z,101327.72
2023-02-11T14:04:00.572Z,101329.53
2023-02-11T14:06:46.389Z,101318.22
2023-02-11T14:09:12.911Z,101323.75
2023-02-11T14:11:58.359Z,101315.38
2023-02-11T14:14:25.951Z,101310.94
2023-02-11T14:16:58.981Z,101301.78
2023-02-11T14:19:32.273Z,101301.34
2023-02-11T14:22:05.414Z,101292.44
2023-02-11T14:24:35.213Z,101294.81
2023-02-11T14:27:03.998Z,101290.94
2023-02-11T14:29:37.064Z,101287.91
2023-02-11T14:32:09.853Z,101285.97
2023-02-11T14:34:36.405Z,101286.34
2023-02-11T14:37:12.541Z,101296.66
2023-02-11T14:39:40.419Z,101286.66
2023-02-11T14:42:07.668Z,101277.19
2023-02-11T14:44:34.433Z,101271.38
2023-02-11T14:47:00.989Z,101269.47
2023-02-11T14:49:28.914Z,101266.72
2023-02-11T14:52:00.759Z,101273.56
2023-02-11T14:54:27.654Z,101262.66
2023-02-11T14:57:09.966Z,101256.78
2023-02-11T14:59:36.608Z,101263.56
2023-02-11T15:02:03.272Z,101261.34
2023-02-11T15:04:31.147Z,101251.50
2023-02-11T15:06:59.541Z,101267.06
2023-02-11T15:09:42.413Z,101260.88
2023-02-11T15:12:17.487Z,101267.94
2023-02-11T15:14:46.315Z,101273.34
2023-02-11T15:17:13.140Z,101256.81
2023-02-11T15:19:41.196Z,101254.91
2023-02-11T15:22:10.924Z,101257.16
2023-02-11T15:24:39.497Z,101252.69
2023-02-11T15:27:12.704Z,101256.66
2023-02-11T15:29:43.512Z,101257.78
2023-02-11T15:32:10.191Z,101261.72
2023-02-11T15:34:37.418Z,101261.81
2023-02-11T15:37:04.281Z,101266.63
2023-02-11T15:39:31.646Z,101253.16
2023-02-11T15:42:15.749Z,101255.22
2023-02-11T15:44:42.396Z,101261.72
2023-02-11T15:47:12.350Z,101238.94
2023-02-11T15:49:39.968Z,101237.59
2023-02-11T15:52:06.491Z,101250.88
2023-02-11T15:54:33.370Z,101255.44
2023-02-11T15:57:02.022Z,101253.19
2023-02-11T15:59:32.871Z,101252.13
2023-02-11T16:02:05.321Z,101253.25
2023-02-11T16:04:31.959Z,101252.19
2023-02-11T16:06:58.627Z,101255.00
2023-02-11T16:09:26.705Z,101258.09
2023-02-11T16:11:54.343Z,101267.97
2023-02-11T16:14:24.088Z,101268.53
2023-02-11T16:16:51.774Z,101254.22
2023-02-11T16:19:18.793Z,101250.06
2023-02-11T16:21:45.544Z,101245.53
2023-02-11T16:24:19.025Z,101251.16
2023-02-11T16:26:47.254Z,101252.63
2023-02-11T16:29:15.065Z,101255.72
2023-02-11T16:31:45.757Z,101245.88
2023-02-11T16:34:16.588Z,101253.22
2023-02-11T16:36:43.134Z,101251.50
2023-02-11T16:39:11.209Z,101257.44
2023-02-11T16:41:37.792Z,101258.59
2023-02-11T16:44:04.424Z,101249.31
2023-02-11T16:46:31.578Z,101252.97
2023-02-11T16:48:58.269Z,101269.84
2023-02-11T16:51:24.884Z,101264.22
2023-02-11T16:53:51.550Z,101262.50
2023-02-11T16:56:18.293Z,101267.31
2023-02-11T16:58:44.932Z,101267.59
2023-02-11T17:01:13.917Z,101264.78
2023-02-11T17:03:41.086Z,101271.84
2023-02-11T17:06:10.816Z,101274.09
2023-02-11T17:08:37.448Z,101279.47
2023-02-11T17:11:04.154Z,101285.66
2023-02-11T17:13:30.726Z,101284.59
2023-02-11T17:15:57.443Z,101286.88
2023-02-11T17:18:24.047Z,101281.84
2023-02-11T17:20:50.598Z,101287.78
2023-02-11T17:23:17.326Z,101286.09
2023-02-11T17:25:44.288Z,101289.19
2023-02-11T17:28:12.264Z,101290.91
2023-02-11T17:30:40.013Z,101293.72
2023-02-11T17:33:06.675Z,101295.97
2023-02-11T17:35:33.247Z,101292.06
2023-02-11T17:38:01.676Z,101301.06
2023-02-11T17:40:28.268Z,101308.97
2023-02-11T17:42:54.824Z,101314.88
2023-02-11T17:45:22.483Z,101309.81
2023-02-11T17:47:49.595Z,101310.97
2023-02-11T17:50:16.279Z,101309.88
2023-02-11T17:52:43.069Z,101315.22
2023-02-11T17:55:09.748Z,101316.91
2023-02-11T17:57:36.411Z,101314.66
2023-02-11T18:00:04.528Z,101328.16
2023-02-11T18:02:31.090Z,101319.75
2023-02-11T18:04:58.919Z,101325.94
2023-02-11T18:07:26.158Z,101324.81
2023-02-11T18:09:52.810Z,101323.72
2023-02-11T18:12:25.379Z,101331.88
2023-02-11T18:14:56.792Z,101338.38
2023-02-11T18:17:24.354Z,101330.81
2023-02-11T18:19:50.954Z,101333.31
2023-02-11T18:22:17.843Z,101341.22
2023-02-11T18:24:44.395Z,101346.25
2023-02-11T18:27:10.946Z,101346.56
2023-02-11T18:29:38.093Z,101342.34
2023-02-11T18:32:04.819Z,101341.78
2023-02-11T18:34:31.938Z,101344.31
2023-02-11T18:36:58.771Z,101354.16
2023-02-11T18:39:26.546Z,101352.47
2023-02-11T18:41:56.953Z,101354.72
2023-02-11T18:44:24.886Z,101353.91
2023-02-11T18:46:52.054Z,101355.88
2023-02-11T18:49:18.900Z,101354.47
2023-02-11T18:51:45.767Z,101356.44
2023-02-11T18:54:12.537Z,101351.91
2023-02-11T18:56:39.224Z,101358.38
2023-02-11T18:59:06.679Z,101357.53
2023-02-11T19:01:34.605Z,101354.72
2023-02-11T19:04:04.548Z,101361.47
2023-02-11T19:06:35.202Z,101359.78
2023-02-11T19:09:03.457Z,101358.97
2023-02-11T19:11:49.474Z,101364.31
2023-02-11T19:14:20.624Z,101363.44
2023-02-11T19:16:47.524Z,101360.91
2023-02-11T19:19:14.446Z,101360.91
2023-02-11T19:21:41.998Z,101361.47
2023-02-11T19:24:08.764Z,101363.72
2023-02-11T19:26:35.757Z,101363.19
2023-02-11T19:29:02.495Z,101361.50
2023-02-11T19:31:32.244Z,101364.56
2023-02-11T19:33:59.475Z,101366.53
2023-02-11T19:36:26.163Z,101361.50
2023-02-11T19:38:52.832Z,101360.91
2023-02-11T19:41:22.394Z,101360.38
2023-02-11T19:43:53.178Z,101366.25
2023-02-11T19:46:20.926Z,101365.41
2023-02-11T19:48:48.242Z,101363.44
2023-02-11T19:51:14.808Z,101365.41
2023-02-11T19:53:41.596Z,101376.38
2023-02-11T19:56:08.845Z,101369.06
2023-02-11T19:58:35.875Z,101368.22
2023-02-11T20:01:08.695Z,101373.84
2023-02-11T20:03:35.347Z,101365.41
2023-02-11T20:06:09.160Z,101364.59
2023-02-11T20:08:35.850Z,101362.06
2023-02-11T20:11:09.217Z,101360.66
2023-02-11T20:13:37.746Z,101360.91
2023-02-11T20:16:08.189Z,101361.50
2023-02-11T20:18:35.118Z,101364.59
2023-02-11T20:21:06.169Z,101367.69
2023-02-11T20:23:33.097Z,101354.22
2023-02-11T20:25:59.872Z,101364.03
2023-02-11T20:28:26.882Z,101363.19
2023-02-11T20:30:57.362Z,101362.59
2023-02-11T20:33:24.368Z,101360.38
2023-02-11T20:35:57.933Z,101366.00
2023-02-11T20:38:24.709Z,101370.47
2023-02-11T20:40:51.329Z,101365.69
2023-02-11T20:43:18.139Z,101368.78
2023-02-11T20:45:45.100Z,101373.56
2023-02-11T20:48:11.954Z,101377.47
2023-02-11T20:50:38.621Z,101373.84
2023-02-11T20:53:05.416Z,101370.47
2023-02-11T20:55:32.290Z,101375.25
2023-02-11T20:57:58.900Z,101373.56
2023-02-11T21:00:25.786Z,101371.03
2023-02-11T21:02:52.869Z,101377.47
2023-02-11T21:05:19.558Z,101375.53
2023-02-11T21:07:46.524Z,101378.63
2023-02-11T21:10:13.195Z,101374.94
2023-02-11T21:12:39.741Z,101373.28
2023-02-11T21:15:07.994Z,101371.59
2023-02-11T21:17:34.622Z,101381.13
2023-02-11T21:20:01.213Z,101373.28
2023-02-11T21:22:27.993Z,101364.53
2023-02-11T21:24:54.616Z,101367.63
2023-02-11T21:27:21.160Z,101360.34
2023-02-11T21:29:54.228Z,101362.56
2023-02-11T21:32:21.402Z,101369.28
2023-02-11T21:34:48.127Z,101370.44
2023-02-11T21:37:15.134Z,101368.72
2023-02-11T21:39:43.369Z,101376.59
2023-02-11T21:42:10.024Z,101374.88
2023-02-11T21:44:36.832Z,101389.75
2023-02-11T21:47:03.576Z,101390.03
2023-02-11T21:49:30.281Z,101390.59
2023-02-11T21:51:56.898Z,101395.63
2023-02-11T21:54:25.901Z,101391.41
2023-02-11T21:56:52.889Z,101388.88
2023-02-11T21:59:19.565Z,101392.81
2023-02-11T22:01:46.372Z,101395.03
2023-02-11T22:04:13.058Z,101394.19
2023-02-11T22:06:39.726Z,101386.91
2023-02-11T22:09:07.180Z,101387.75
2023-02-11T22:11:33.727Z,101391.09
2023-02-11T22:14:00.430Z,101395.63
2023-02-11T22:16:27.446Z,101380.75
2023-02-11T22:18:54.129Z,101383.81
2023-02-11T22:21:21.681Z,101391.69
2023-02-11T22:23:48.522Z,101391.09
2023-02-11T22:26:15.937Z,101388.84
2023-02-11T22:28:42.980Z,101398.38
2023-02-11T22:31:13.476Z,101406.22
2023-02-11T22:33:40.193Z,101398.66
2023-02-11T22:36:08.061Z,101396.09
2023-02-11T22:38:34.741Z,101394.44
2023-02-11T22:41:04.727Z,101388.53
2023-02-11T22:43:31.607Z,101387.94
2023-02-11T22:46:05.045Z,101396.66
2023-02-11T22:48:31.975Z,101397.47
2023-02-11T22:51:03.722Z,101396.66
2023-02-11T22:53:30.453Z,101403.91
2023-02-11T22:55:57.701Z,101409.78
2023-02-11T22:58:24.770Z,101405.31
2023-02-11T23:00:51.325Z,101401.06
2023-02-11T23:03:18.033Z,101401.63
2023-02-11T23:05:44.617Z,101393.50
2023-02-11T23:08:11.283Z,101397.44
2023-02-11T23:10:38.156Z,101396.56
2023-02-11T23:13:04.734Z,101390.13
2023-02-11T23:15:31.286Z,101389.56
2023-02-11T23:17:58.020Z,101397.13
2023-02-11T23:20:24.567Z,101392.63
2023-02-11T23:22:51.482Z,101391.53
2023-02-11T23:25:18.203Z,101382.53
2023-02-11T23:27:44.780Z,101384.22
2023-02-11T23:30:11.830Z,101384.50
2023-02-11T23:32:39.165Z,101385.34
2023-02-11T23:35:05.896Z,101389.00
2023-02-11T23:37:32.537Z,101381.97
2023-02-11T23:39:59.210Z,101379.16
2023-02-11T23:42:26.021Z,101368.81
2023-02-11T23:44:52.693Z,101373.56
2023-02-11T23:47:19.882Z,101380.28
2023-02-11T23:49:46.439Z,101377.50
2023-02-11T23:52:13.083Z,101373.56
2023-02-11T23:54:39.696Z,101378.31
2023-02-11T23:57:06.419Z,101379.44
2023-02-11T23:59:33.032Z,101376.66
